Symphony Classica — JG4838 — position and weather

sailwx.info

Track history (hours):
 
Tides and Currents Weather Stations Pressure Air Temp Water Temp Dewpoint Dewpoint Depression Visibility Wind Speed Wind Dir Waves Ship Positions

Symphony Classica

Last reported at 2018-Feb-24 12:31 UTC. Time now 2018-Feb-24 19:37 UTC.
Position N 35°39' E 139°46'.

Length 70 m; draft 3 m.

Type: Passenger vessel. MMSI: 431000425.

Date/timePositionNaut miles runAvg speedWind from/ knotsBaromVisibWave heightAir tempDewpointWater temp
2018-Feb-24 12:31N 35°39' E 139°46'0 0.0
2018-Feb-24 12:26N 35°39' E 139°46'2 4.2
2018-Feb-24 12:00N 35°37' E 139°46'4 7.7
2018-Feb-24 11:30N 35°34' E 139°49'3 6.7
2018-Feb-24 11:00N 35°35' E 139°52'4 7.8
2018-Feb-24 10:28N 35°36' E 139°47'3 7.1
2018-Feb-24 10:00N 35°39' E 139°46'0 0.0
2018-Feb-24 09:30N 35°39' E 139°46'1 1.2
2018-Feb-24 09:00N 35°38' E 139°46'4 7.5
2018-Feb-24 08:31N 35°35' E 139°48'4 7.2
2018-Feb-24 07:58N 35°36' E 139°52'4 8.1
2018-Feb-24 07:30N 35°36' E 139°48'3 5.8
2018-Feb-24 06:59N 35°39' E 139°46'0 0.0
2018-Feb-24 06:29N 35°39' E 139°46'0 0.0
2018-Feb-23 18:26N 35°39' E 139°46'0 0.0
2018-Feb-23 17:38N 35°39' E 139°46'0 0.0
2018-Feb-23 10:47N 35°39' E 139°46'0 0.0
2018-Feb-23 07:20N 35°39' E 139°46'0 0.0
2018-Feb-23 06:59N 35°39' E 139°46'0 0.0
2018-Feb-23 04:32N 35°39' E 139°46'0 0.0
2018-Feb-23 04:26N 35°39' E 139°46'0 0.0
2018-Feb-22 17:53N 35°39' E 139°46'0 0.0
2018-Feb-22 17:29N 35°39' E 139°46'0 0.0
2018-Feb-22 16:56N 35°39' E 139°46'0 0.0
2018-Feb-22 12:19N 35°39' E 139°46'1 3.3
2018-Feb-22 11:59N 35°38' E 139°46'4 7.6
2018-Feb-22 11:30N 35°35' E 139°48'3 6.0
2018-Feb-22 11:00N 35°36' E 139°51'4 8.3
2018-Feb-22 10:30N 35°36' E 139°46'3 5.8
2018-Feb-22 10:00N 35°39' E 139°46'0 0.0
2018-Feb-22 09:27N 35°39' E 139°46'1 1.7
2018-Feb-22 08:59N 35°38' E 139°46'4 8.6
2018-Feb-22 08:30N 35°35' E 139°48'2 4.7
2018-Feb-22 08:00N 35°37' E 139°49'3 6.6
2018-Feb-22 07:30N 35°39' E 139°46'0 0.4
2018-Feb-22 06:59N 35°39' E 139°46'0 0.0
2018-Feb-22 04:42N 35°39' E 139°46'0 0.0
2018-Feb-22 04:17N 35°39' E 139°46'0 0.0
2018-Feb-22 02:41N 35°39' E 139°46'0 0.0
2018-Feb-22 02:29N 35°39' E 139°46'0 0.0
2018-Feb-21 23:41N 35°39' E 139°46'0 0.0
2018-Feb-21 21:32N 35°39' E 139°46'0 0.0
2018-Feb-21 21:29N 35°39' E 139°46'0 0.0
2018-Feb-21 18:11N 35°39' E 139°46'0 0.0
2018-Feb-21 16:59N 35°39' E 139°46'0 0.0
2018-Feb-21 10:44N 35°39' E 139°46'0 0.0
2018-Feb-21 10:23N 35°39' E 139°46'0 0.0
2018-Feb-21 06:47N 35°39' E 139°46'0 0.0
2018-Feb-21 06:30N 35°39' E 139°46'0 0.0
2018-Feb-21 05:59N 35°39' E 139°46'0 0.0
2018-Feb-20 18:53N 35°39' E 139°46'0 0.0
2018-Feb-20 12:26N 35°39' E 139°46'1 2.3
2018-Feb-20 12:00N 35°38' E 139°46'4 8.7
2018-Feb-20 11:30N 35°34' E 139°49'3 6.0
2018-Feb-20 10:59N 35°36' E 139°52'3 6.8
2018-Feb-20 10:29N 35°36' E 139°47'3 3.9
2018-Feb-20 09:39N 35°39' E 139°46'0 0.0
2018-Feb-20 09:13N 35°39' E 139°46'1 2.7
2018-Feb-20 09:00N 35°39' E 139°46'3 5.2
2018-Feb-20 08:30N 35°36' E 139°47'3 5.1
2018-Feb-20 08:00N 35°36' E 139°50'4 7.5
2018-Feb-20 07:30N 35°38' E 139°46'1 2.7
2018-Feb-20 07:00N 35°39' E 139°46'1 1.7
2018-Feb-20 06:30N 35°39' E 139°47'1 1.7
2018-Feb-20 06:00N 35°39' E 139°46'0 0.0
2018-Feb-20 04:58N 35°39' E 139°46'3 5.4
2018-Feb-20 04:29N 35°37' E 139°46'4 8.3
2018-Feb-20 04:00N 35°34' E 139°50'3 6.6
2018-Feb-20 03:30N 35°37' E 139°49'3 6.1
2018-Feb-20 03:00N 35°39' E 139°46'0 0.2
2018-Feb-20 02:25N 35°39' E 139°46'0 0.0
2018-Feb-19 18:13N 35°39' E 139°46'0 0.0
2018-Feb-19 17:43N 35°39' E 139°46'0 0.0
2018-Feb-19 17:16N 35°39' E 139°46'0 0.0
2018-Feb-19 16:58N 35°39' E 139°46'0 0.0
2018-Feb-19 16:28N 35°39' E 139°46'0 0.0
2018-Feb-19 15:58N 35°39' E 139°46'0 0.0
2018-Feb-19 15:28N 35°39' E 139°46'0 0.0
2018-Feb-19 14:10N 35°39' E 139°46'0 0.0
2018-Feb-19 13:43N 35°39' E 139°46'0 0.0
2018-Feb-19 12:11N 35°39' E 139°46'1 3.0
2018-Feb-19 12:00N 35°38' E 139°46'1 2.3
2018-Feb-19 11:30N 35°37' E 139°46'4 8.7
2018-Feb-19 11:00N 35°34' E 139°50'3 5.6
2018-Feb-19 10:30N 35°36' E 139°47'3 2.6
2018-Feb-19 09:17N 35°39' E 139°46'1 2.3
2018-Feb-19 09:00N 35°38' E 139°46'4 7.4
2018-Feb-19 08:30N 35°35' E 139°48'2 4.1
2018-Feb-19 08:00N 35°37' E 139°49'3 6.9
2018-Feb-19 07:30N 35°39' E 139°46'1 1.0
2018-Feb-19 07:00N 35°39' E 139°46'1 1.6
2018-Feb-19 06:30N 35°39' E 139°47'1 0.8
2018-Feb-19 05:29N 35°39' E 139°46'0 0.0
2018-Feb-19 05:00N 35°39' E 139°46'1 2.4
2018-Feb-19 04:30N 35°38' E 139°46'4 8.6
2018-Feb-19 04:00N 35°34' E 139°49'2 4.4
2018-Feb-19 03:30N 35°36' E 139°50'4 7.3
2018-Feb-19 03:00N 35°38' E 139°46'1 0.1
2018-Feb-18 16:56N 35°39' E 139°46'0 0.0
2018-Feb-18 16:26N 35°39' E 139°46'0 0.0
2018-Feb-18 12:23N 35°39' E 139°46'1 3.0
2018-Feb-18 12:00N 35°38' E 139°46'4 7.8
2018-Feb-18 11:30N 35°35' E 139°48'3 5.1
2018-Feb-18 10:59N 35°36' E 139°51'4 8.1
2018-Feb-18 10:30N 35°36' E 139°46'3 4.7
2018-Feb-18 09:54N 35°39' E 139°46'0 0.0
2018-Feb-18 09:25N 35°39' E 139°46'1 2.2
2018-Feb-18 09:00N 35°38' E 139°46'4 8.2
2018-Feb-18 08:30N 35°35' E 139°48'2 3.7
2018-Feb-18 08:00N 35°36' E 139°48'3 5.7
2018-Feb-18 07:29N 35°39' E 139°46'0 0.2
2018-Feb-18 06:58N 35°39' E 139°46'1 1.3
2018-Feb-18 06:30N 35°39' E 139°46'1 1.1
2018-Feb-18 05:58N 35°39' E 139°46'0 0.0
2018-Feb-18 05:23N 35°39' E 139°46'0 0.0
2018-Feb-18 04:56N 35°39' E 139°46'2 5.8
2018-Feb-18 04:30N 35°37' E 139°46'4 9.0
2018-Feb-18 04:01N 35°33' E 139°50'4 7.3
2018-Feb-18 03:30N 35°37' E 139°48'3 5.5
2018-Feb-18 02:58N 35°39' E 139°46'0 0.0
2018-Feb-17 16:10N 35°39' E 139°46'0 0.0
2018-Feb-17 15:58N 35°39' E 139°46'0 0.0
2018-Feb-17 13:58N 35°39' E 139°46'0 0.0
2018-Feb-17 13:28N 35°39' E 139°46'0 0.0
2018-Feb-17 12:26N 35°39' E 139°46'1 1.9
2018-Feb-17 12:00N 35°38' E 139°46'3 6.1
2018-Feb-17 11:30N 35°35' E 139°47'2 4.9
2018-Feb-17 11:00N 35°35' E 139°50'3 6.4
2018-Feb-17 10:31N 35°36' E 139°47'3 5.8
2018-Feb-17 09:59N 35°39' E 139°46'0 0.0
2018-Feb-17 09:27N 35°39' E 139°46'2 3.3
2018-Feb-17 09:00N 35°38' E 139°46'3 6.8
2018-Feb-17 08:30N 35°35' E 139°48'0 0.9
2018-Feb-17 08:00N 35°35' E 139°48'4 8.1
2018-Feb-17 07:30N 35°39' E 139°46'0 0.6
2018-Feb-17 06:38N 35°39' E 139°46'1 6.2
2018-Feb-17 06:30N 35°38' E 139°46'1 0.5
2018-Feb-17 04:53N 35°39' E 139°46'2 4.6
2018-Feb-17 04:29N 35°37' E 139°46'5 9.7
2018-Feb-17 04:00N 35°34' E 139°50'3 5.3
2018-Feb-17 03:29N 35°37' E 139°50'4 6.9
2018-Feb-17 02:58N 35°38' E 139°46'1 0.1
2018-Feb-16 15:39N 35°39' E 139°46'0 0.0
2018-Feb-16 15:27N 35°39' E 139°46'0 0.0
2018-Feb-16 14:51N 35°39' E 139°46'0 0.0
2018-Feb-16 14:21N 35°39' E 139°46'0 0.0
2018-Feb-16 12:39N 35°39' E 139°46'0 0.0
2018-Feb-16 12:29N 35°39' E 139°46'1 2.4
2018-Feb-16 12:00N 35°38' E 139°46'4 8.4
2018-Feb-16 11:30N 35°34' E 139°49'4 7.9
2018-Feb-16 11:00N 35°37' E 139°53'4 8.7
2018-Feb-16 10:30N 35°36' E 139°47'3 2.5
2018-Feb-16 09:13N 35°39' E 139°46'1 3.2
2018-Feb-16 09:00N 35°38' E 139°46'4 8.0
2018-Feb-16 08:30N 35°35' E 139°48'2 4.2
2018-Feb-16 07:59N 35°37' E 139°49'3 6.2
2018-Feb-16 07:30N 35°38' E 139°46'1 0.9
2018-Feb-16 06:45N 35°39' E 139°46'1 5.2
2018-Feb-16 06:30N 35°38' E 139°46'1 2.4
2018-Feb-16 05:58N 35°39' E 139°46'0 0.0
2018-Feb-16 05:27N 35°39' E 139°46'0 0.0
2018-Feb-16 04:55N 35°39' E 139°46'1 1.5
2018-Feb-16 04:30N 35°38' E 139°46'4 8.5
2018-Feb-16 04:00N 35°35' E 139°48'2 4.5
2018-Feb-16 03:28N 35°37' E 139°49'3 7.0
2018-Feb-16 03:00N 35°38' E 139°46'1 0.1
2018-Feb-15 16:22N 35°39' E 139°46'0 0.0
2018-Feb-15 12:40N 35°39' E 139°46'0 0.0
2018-Feb-15 12:23N 35°39' E 139°46'2 5.0
2018-Feb-15 12:00N 35°37' E 139°46'4 7.1
2018-Feb-15 11:30N 35°34' E 139°49'4 7.9
2018-Feb-15 11:00N 35°37' E 139°53'4 7.7
2018-Feb-15 10:30N 35°37' E 139°48'3 5.9
2018-Feb-15 10:00N 35°39' E 139°46'0 0.0
2018-Feb-15 09:14N 35°39' E 139°46'1 2.7
2018-Feb-15 09:00N 35°39' E 139°46'3 5.2
2018-Feb-15 08:30N 35°36' E 139°47'2 4.6
2018-Feb-15 07:59N 35°37' E 139°50'4 7.3
2018-Feb-15 07:31N 35°38' E 139°46'1 1.1
2018-Feb-15 06:45N 35°39' E 139°46'1 2.9
2018-Feb-15 06:30N 35°38' E 139°46'1 1.5
2018-Feb-15 06:00N 35°39' E 139°46'0 0.0
2018-Feb-15 05:12N 35°39' E 139°46'0 0.5
2018-Feb-15 04:49N 35°39' E 139°46'1 1.9
2018-Feb-15 04:30N 35°39' E 139°46'4 8.7
2018-Feb-15 04:00N 35°34' E 139°48'3 5.1
2018-Feb-15 03:29N 35°36' E 139°50'3 7.2
2018-Feb-15 03:00N 35°38' E 139°46'1 2.5
2018-Feb-15 02:30N 35°39' E 139°46'0 0.0
2018-Feb-14 17:00N 35°39' E 139°46'0 0.0
2018-Feb-14 16:24N 35°39' E 139°46'0 0.0
2018-Feb-14 15:54N 35°39' E 139°46'0 0.0
2018-Feb-14 15:18N 35°39' E 139°46'0 0.0
2018-Feb-14 15:00N 35°39' E 139°46'0 0.0
2018-Feb-14 13:06N 35°39' E 139°46'0 0.0
2018-Feb-14 12:42N 35°39' E 139°46'  
Track history (hours):
 
Tides and Currents Weather Stations Pressure Air Temp Water Temp Dewpoint Dewpoint Depression Visibility Wind Speed Wind Dir Waves Ship Positions

Symphony Classica

Last reported at 2018-Feb-24 12:31 UTC. Time now 2018-Feb-24 19:37 UTC.
Position N 35°39' E 139°46'.

Length 70 m; draft 3 m.

Type: Passenger vessel. MMSI: 431000425.

Date/timePositionNaut miles runAvg speedWind from/ knotsBaromVisibWave heightAir tempDewpointWater temp
2018-Feb-24 12:31N 35°39' E 139°46'0 0.0
2018-Feb-24 12:26N 35°39' E 139°46'2 4.2
2018-Feb-24 12:00N 35°37' E 139°46'4 7.7
2018-Feb-24 11:30N 35°34' E 139°49'3 6.7
2018-Feb-24 11:00N 35°35' E 139°52'4 7.8
2018-Feb-24 10:28N 35°36' E 139°47'3 7.1
2018-Feb-24 10:00N 35°39' E 139°46'0 0.0
2018-Feb-24 09:30N 35°39' E 139°46'1 1.2
2018-Feb-24 09:00N 35°38' E 139°46'4 7.5
2018-Feb-24 08:31N 35°35' E 139°48'4 7.2
2018-Feb-24 07:58N 35°36' E 139°52'4 8.1
2018-Feb-24 07:30N 35°36' E 139°48'3 5.8
2018-Feb-24 06:59N 35°39' E 139°46'0 0.0
2018-Feb-24 06:29N 35°39' E 139°46'0 0.0
2018-Feb-23 18:26N 35°39' E 139°46'0 0.0
2018-Feb-23 17:38N 35°39' E 139°46'0 0.0
2018-Feb-23 10:47N 35°39' E 139°46'0 0.0
2018-Feb-23 07:20N 35°39' E 139°46'0 0.0
2018-Feb-23 06:59N 35°39' E 139°46'0 0.0
2018-Feb-23 04:32N 35°39' E 139°46'0 0.0
2018-Feb-23 04:26N 35°39' E 139°46'0 0.0
2018-Feb-22 17:53N 35°39' E 139°46'0 0.0
2018-Feb-22 17:29N 35°39' E 139°46'0 0.0
2018-Feb-22 16:56N 35°39' E 139°46'0 0.0
2018-Feb-22 12:19N 35°39' E 139°46'1 3.3
2018-Feb-22 11:59N 35°38' E 139°46'4 7.6
2018-Feb-22 11:30N 35°35' E 139°48'3 6.0
2018-Feb-22 11:00N 35°36' E 139°51'4 8.3
2018-Feb-22 10:30N 35°36' E 139°46'3 5.8
2018-Feb-22 10:00N 35°39' E 139°46'0 0.0
2018-Feb-22 09:27N 35°39' E 139°46'1 1.7
2018-Feb-22 08:59N 35°38' E 139°46'4 8.6
2018-Feb-22 08:30N 35°35' E 139°48'2 4.7
2018-Feb-22 08:00N 35°37' E 139°49'3 6.6
2018-Feb-22 07:30N 35°39' E 139°46'0 0.4
2018-Feb-22 06:59N 35°39' E 139°46'0 0.0
2018-Feb-22 04:42N 35°39' E 139°46'0 0.0
2018-Feb-22 04:17N 35°39' E 139°46'0 0.0
2018-Feb-22 02:41N 35°39' E 139°46'0 0.0
2018-Feb-22 02:29N 35°39' E 139°46'0 0.0
2018-Feb-21 23:41N 35°39' E 139°46'0 0.0
2018-Feb-21 21:32N 35°39' E 139°46'0 0.0
2018-Feb-21 21:29N 35°39' E 139°46'0 0.0
2018-Feb-21 18:11N 35°39' E 139°46'0 0.0
2018-Feb-21 16:59N 35°39' E 139°46'0 0.0
2018-Feb-21 10:44N 35°39' E 139°46'0 0.0
2018-Feb-21 10:23N 35°39' E 139°46'0 0.0
2018-Feb-21 06:47N 35°39' E 139°46'0 0.0
2018-Feb-21 06:30N 35°39' E 139°46'0 0.0
2018-Feb-21 05:59N 35°39' E 139°46'0 0.0
2018-Feb-20 18:53N 35°39' E 139°46'0 0.0
2018-Feb-20 12:26N 35°39' E 139°46'1 2.3
2018-Feb-20 12:00N 35°38' E 139°46'4 8.7
2018-Feb-20 11:30N 35°34' E 139°49'3 6.0
2018-Feb-20 10:59N 35°36' E 139°52'3 6.8
2018-Feb-20 10:29N 35°36' E 139°47'3 3.9
2018-Feb-20 09:39N 35°39' E 139°46'0 0.0
2018-Feb-20 09:13N 35°39' E 139°46'1 2.7
2018-Feb-20 09:00N 35°39' E 139°46'3 5.2
2018-Feb-20 08:30N 35°36' E 139°47'3 5.1
2018-Feb-20 08:00N 35°36' E 139°50'4 7.5
2018-Feb-20 07:30N 35°38' E 139°46'1 2.7
2018-Feb-20 07:00N 35°39' E 139°46'1 1.7
2018-Feb-20 06:30N 35°39' E 139°47'1 1.7
2018-Feb-20 06:00N 35°39' E 139°46'0 0.0
2018-Feb-20 04:58N 35°39' E 139°46'3 5.4
2018-Feb-20 04:29N 35°37' E 139°46'4 8.3
2018-Feb-20 04:00N 35°34' E 139°50'3 6.6
2018-Feb-20 03:30N 35°37' E 139°49'3 6.1
2018-Feb-20 03:00N 35°39' E 139°46'0 0.2
2018-Feb-20 02:25N 35°39' E 139°46'0 0.0
2018-Feb-19 18:13N 35°39' E 139°46'0 0.0
2018-Feb-19 17:43N 35°39' E 139°46'0 0.0
2018-Feb-19 17:16N 35°39' E 139°46'0 0.0
2018-Feb-19 16:58N 35°39' E 139°46'0 0.0
2018-Feb-19 16:28N 35°39' E 139°46'0 0.0
2018-Feb-19 15:58N 35°39' E 139°46'0 0.0
2018-Feb-19 15:28N 35°39' E 139°46'0 0.0
2018-Feb-19 14:10N 35°39' E 139°46'0 0.0
2018-Feb-19 13:43N 35°39' E 139°46'0 0.0
2018-Feb-19 12:11N 35°39' E 139°46'1 3.0
2018-Feb-19 12:00N 35°38' E 139°46'1 2.3
2018-Feb-19 11:30N 35°37' E 139°46'4 8.7
2018-Feb-19 11:00N 35°34' E 139°50'3 5.6
2018-Feb-19 10:30N 35°36' E 139°47'3 2.6
2018-Feb-19 09:17N 35°39' E 139°46'1 2.3
2018-Feb-19 09:00N 35°38' E 139°46'4 7.4
2018-Feb-19 08:30N 35°35' E 139°48'2 4.1
2018-Feb-19 08:00N 35°37' E 139°49'3 6.9
2018-Feb-19 07:30N 35°39' E 139°46'1 1.0
2018-Feb-19 07:00N 35°39' E 139°46'1 1.6
2018-Feb-19 06:30N 35°39' E 139°47'1 0.8
2018-Feb-19 05:29N 35°39' E 139°46'0 0.0
2018-Feb-19 05:00N 35°39' E 139°46'1 2.4
2018-Feb-19 04:30N 35°38' E 139°46'4 8.6
2018-Feb-19 04:00N 35°34' E 139°49'2 4.4
2018-Feb-19 03:30N 35°36' E 139°50'4 7.3
2018-Feb-19 03:00N 35°38' E 139°46'1 0.1
2018-Feb-18 16:56N 35°39' E 139°46'0 0.0
2018-Feb-18 16:26N 35°39' E 139°46'0 0.0
2018-Feb-18 12:23N 35°39' E 139°46'1 3.0
2018-Feb-18 12:00N 35°38' E 139°46'4 7.8
2018-Feb-18 11:30N 35°35' E 139°48'3 5.1
2018-Feb-18 10:59N 35°36' E 139°51'4 8.1
2018-Feb-18 10:30N 35°36' E 139°46'3 4.7
2018-Feb-18 09:54N 35°39' E 139°46'0 0.0
2018-Feb-18 09:25N 35°39' E 139°46'1 2.2
2018-Feb-18 09:00N 35°38' E 139°46'4 8.2
2018-Feb-18 08:30N 35°35' E 139°48'2 3.7
2018-Feb-18 08:00N 35°36' E 139°48'3 5.7
2018-Feb-18 07:29N 35°39' E 139°46'0 0.2
2018-Feb-18 06:58N 35°39' E 139°46'1 1.3
2018-Feb-18 06:30N 35°39' E 139°46'1 1.1
2018-Feb-18 05:58N 35°39' E 139°46'0 0.0
2018-Feb-18 05:23N 35°39' E 139°46'0 0.0
2018-Feb-18 04:56N 35°39' E 139°46'2 5.8
2018-Feb-18 04:30N 35°37' E 139°46'4 9.0
2018-Feb-18 04:01N 35°33' E 139°50'4 7.3
2018-Feb-18 03:30N 35°37' E 139°48'3 5.5
2018-Feb-18 02:58N 35°39' E 139°46'0 0.0
2018-Feb-17 16:10N 35°39' E 139°46'0 0.0
2018-Feb-17 15:58N 35°39' E 139°46'0 0.0
2018-Feb-17 13:58N 35°39' E 139°46'0 0.0
2018-Feb-17 13:28N 35°39' E 139°46'0 0.0
2018-Feb-17 12:26N 35°39' E 139°46'1 1.9
2018-Feb-17 12:00N 35°38' E 139°46'3 6.1
2018-Feb-17 11:30N 35°35' E 139°47'2 4.9
2018-Feb-17 11:00N 35°35' E 139°50'3 6.4
2018-Feb-17 10:31N 35°36' E 139°47'3 5.8
2018-Feb-17 09:59N 35°39' E 139°46'0 0.0
2018-Feb-17 09:27N 35°39' E 139°46'2 3.3
2018-Feb-17 09:00N 35°38' E 139°46'3 6.8
2018-Feb-17 08:30N 35°35' E 139°48'0 0.9
2018-Feb-17 08:00N 35°35' E 139°48'4 8.1
2018-Feb-17 07:30N 35°39' E 139°46'0 0.6
2018-Feb-17 06:38N 35°39' E 139°46'1 6.2
2018-Feb-17 06:30N 35°38' E 139°46'1 0.5
2018-Feb-17 04:53N 35°39' E 139°46'2 4.6
2018-Feb-17 04:29N 35°37' E 139°46'5 9.7
2018-Feb-17 04:00N 35°34' E 139°50'3 5.3
2018-Feb-17 03:29N 35°37' E 139°50'4 6.9
2018-Feb-17 02:58N 35°38' E 139°46'1 0.1
2018-Feb-16 15:39N 35°39' E 139°46'0 0.0
2018-Feb-16 15:27N 35°39' E 139°46'0 0.0
2018-Feb-16 14:51N 35°39' E 139°46'0 0.0
2018-Feb-16 14:21N 35°39' E 139°46'0 0.0
2018-Feb-16 12:39N 35°39' E 139°46'0 0.0
2018-Feb-16 12:29N 35°39' E 139°46'1 2.4
2018-Feb-16 12:00N 35°38' E 139°46'4 8.4
2018-Feb-16 11:30N 35°34' E 139°49'4 7.9
2018-Feb-16 11:00N 35°37' E 139°53'4 8.7
2018-Feb-16 10:30N 35°36' E 139°47'3 2.5
2018-Feb-16 09:13N 35°39' E 139°46'1 3.2
2018-Feb-16 09:00N 35°38' E 139°46'4 8.0
2018-Feb-16 08:30N 35°35' E 139°48'2 4.2
2018-Feb-16 07:59N 35°37' E 139°49'3 6.2
2018-Feb-16 07:30N 35°38' E 139°46'1 0.9
2018-Feb-16 06:45N 35°39' E 139°46'1 5.2
2018-Feb-16 06:30N 35°38' E 139°46'1 2.4
2018-Feb-16 05:58N 35°39' E 139°46'0 0.0
2018-Feb-16 05:27N 35°39' E 139°46'0 0.0
2018-Feb-16 04:55N 35°39' E 139°46'1 1.5
2018-Feb-16 04:30N 35°38' E 139°46'4 8.5
2018-Feb-16 04:00N 35°35' E 139°48'2 4.5
2018-Feb-16 03:28N 35°37' E 139°49'3 7.0
2018-Feb-16 03:00N 35°38' E 139°46'1 0.1
2018-Feb-15 16:22N 35°39' E 139°46'0 0.0
2018-Feb-15 12:40N 35°39' E 139°46'0 0.0
2018-Feb-15 12:23N 35°39' E 139°46'2 5.0
2018-Feb-15 12:00N 35°37' E 139°46'4 7.1
2018-Feb-15 11:30N 35°34' E 139°49'4 7.9
2018-Feb-15 11:00N 35°37' E 139°53'4 7.7
2018-Feb-15 10:30N 35°37' E 139°48'3 5.9
2018-Feb-15 10:00N 35°39' E 139°46'0 0.0
2018-Feb-15 09:14N 35°39' E 139°46'1 2.7
2018-Feb-15 09:00N 35°39' E 139°46'3 5.2
2018-Feb-15 08:30N 35°36' E 139°47'2 4.6
2018-Feb-15 07:59N 35°37' E 139°50'4 7.3
2018-Feb-15 07:31N 35°38' E 139°46'1 1.1
2018-Feb-15 06:45N 35°39' E 139°46'1 2.9
2018-Feb-15 06:30N 35°38' E 139°46'1 1.5
2018-Feb-15 06:00N 35°39' E 139°46'0 0.0
2018-Feb-15 05:12N 35°39' E 139°46'0 0.5
2018-Feb-15 04:49N 35°39' E 139°46'1 1.9
2018-Feb-15 04:30N 35°39' E 139°46'4 8.7
2018-Feb-15 04:00N 35°34' E 139°48'3 5.1
2018-Feb-15 03:29N 35°36' E 139°50'3 7.2
2018-Feb-15 03:00N 35°38' E 139°46'1 2.5
2018-Feb-15 02:30N 35°39' E 139°46'0 0.0
2018-Feb-14 17:00N 35°39' E 139°46'0 0.0
2018-Feb-14 16:24N 35°39' E 139°46'0 0.0
2018-Feb-14 15:54N 35°39' E 139°46'0 0.0
2018-Feb-14 15:18N 35°39' E 139°46'0 0.0
2018-Feb-14 15:00N 35°39' E 139°46'0 0.0
2018-Feb-14 13:06N 35°39' E 139°46'0 0.0
2018-Feb-14 12:42N 35°39' E 139°46'  

Dump ship's entire track history